sensor_id;sensor_type;location;lat;lon;timestamp;P1;durP1;ratioP1;P2;durP2;ratioP2
739;SDS011;354;42.694;23.336;2023-01-24T00:02:20;7.73;;;7.07;;
739;SDS011;354;42.694;23.336;2023-01-24T00:04:45;8.77;;;7.27;;
739;SDS011;354;42.694;23.336;2023-01-24T00:07:11;8.40;;;7.67;;
739;SDS011;354;42.694;23.336;2023-01-24T00:09:37;8.63;;;7.70;;
739;SDS011;354;42.694;23.336;2023-01-24T00:12:02;8.33;;;7.70;;
739;SDS011;354;42.694;23.336;2023-01-24T00:14:28;8.83;;;7.77;;
739;SDS011;354;42.694;23.336;2023-01-24T00:16:53;6.97;;;6.27;;
739;SDS011;354;42.694;23.336;2023-01-24T00:19:18;7.60;;;7.00;;
739;SDS011;354;42.694;23.336;2023-01-24T00:21:44;8.03;;;7.23;;
739;SDS011;354;42.694;23.336;2023-01-24T00:24:09;7.60;;;7.00;;
739;SDS011;354;42.694;23.336;2023-01-24T00:26:34;7.67;;;6.93;;
739;SDS011;354;42.694;23.336;2023-01-24T00:29:00;8.43;;;7.67;;
739;SDS011;354;42.694;23.336;2023-01-24T00:31:25;8.70;;;8.00;;
739;SDS011;354;42.694;23.336;2023-01-24T00:33:51;8.00;;;7.20;;
739;SDS011;354;42.694;23.336;2023-01-24T00:36:16;8.47;;;7.53;;
739;SDS011;354;42.694;23.336;2023-01-24T00:38:42;8.83;;;8.03;;
739;SDS011;354;42.694;23.336;2023-01-24T00:41:07;7.60;;;6.77;;
739;SDS011;354;42.694;23.336;2023-01-24T00:43:33;7.60;;;6.67;;
739;SDS011;354;42.694;23.336;2023-01-24T00:45:58;7.93;;;7.13;;
739;SDS011;354;42.694;23.336;2023-01-24T00:48:24;6.40;;;5.80;;
739;SDS011;354;42.694;23.336;2023-01-24T00:50:49;8.37;;;7.67;;
739;SDS011;354;42.694;23.336;2023-01-24T00:53:15;7.93;;;7.17;;
739;SDS011;354;42.694;23.336;2023-01-24T00:55:43;7.67;;;6.97;;
739;SDS011;354;42.694;23.336;2023-01-24T00:58:10;8.77;;;7.87;;
739;SDS011;354;42.694;23.336;2023-01-24T01:00:36;7.77;;;6.97;;
739;SDS011;354;42.694;23.336;2023-01-24T01:03:03;7.73;;;7.13;;
739;SDS011;354;42.694;23.336;2023-01-24T01:05:29;8.80;;;8.10;;
739;SDS011;354;42.694;23.336;2023-01-24T01:07:55;8.30;;;7.50;;
739;SDS011;354;42.694;23.336;2023-01-24T01:10:20;8.47;;;7.67;;
739;SDS011;354;42.694;23.336;2023-01-24T01:12:45;8.60;;;7.80;;
739;SDS011;354;42.694;23.336;2023-01-24T01:15:11;8.83;;;7.63;;
739;SDS011;354;42.694;23.336;2023-01-24T01:17:36;9.37;;;7.83;;
739;SDS011;354;42.694;23.336;2023-01-24T01:20:01;8.47;;;7.27;;
739;SDS011;354;42.694;23.336;2023-01-24T01:22:27;8.80;;;7.93;;
739;SDS011;354;42.694;23.336;2023-01-24T01:24:53;8.93;;;8.10;;
739;SDS011;354;42.694;23.336;2023-01-24T01:27:18;8.60;;;7.73;;
739;SDS011;354;42.694;23.336;2023-01-24T01:29:44;10.40;;;8.00;;
739;SDS011;354;42.694;23.336;2023-01-24T01:32:09;9.57;;;8.00;;
739;SDS011;354;42.694;23.336;2023-01-24T01:34:34;9.87;;;8.10;;
739;SDS011;354;42.694;23.336;2023-01-24T01:37:00;9.40;;;8.47;;
739;SDS011;354;42.694;23.336;2023-01-24T01:39:25;9.13;;;8.23;;
739;SDS011;354;42.694;23.336;2023-01-24T01:41:51;9.77;;;8.50;;
739;SDS011;354;42.694;23.336;2023-01-24T01:44:17;9.57;;;8.57;;
739;SDS011;354;42.694;23.336;2023-01-24T01:52:21;10.17;;;8.53;;
739;SDS011;354;42.694;23.336;2023-01-24T01:54:49;9.20;;;7.63;;
739;SDS011;354;42.694;23.336;2023-01-24T01:57:22;7.83;;;7.10;;
739;SDS011;354;42.694;23.336;2023-01-24T01:59:54;9.67;;;8.77;;
739;SDS011;354;42.694;23.336;2023-01-24T02:02:21;6.90;;;6.30;;
739;SDS011;354;42.694;23.336;2023-01-24T02:04:49;8.63;;;7.40;;
739;SDS011;354;42.694;23.336;2023-01-24T02:07:28;7.60;;;6.97;;
739;SDS011;354;42.694;23.336;2023-01-24T02:09:58;8.00;;;7.20;;
739;SDS011;354;42.694;23.336;2023-01-24T02:12:26;8.50;;;7.10;;
739;SDS011;354;42.694;23.336;2023-01-24T02:14:55;8.70;;;7.80;;
739;SDS011;354;42.694;23.336;2023-01-24T02:17:42;8.10;;;7.40;;
739;SDS011;354;42.694;23.336;2023-01-24T02:27:51;8.80;;;7.90;;
739;SDS011;354;42.694;23.336;2023-01-24T02:30:17;8.70;;;7.83;;
739;SDS011;354;42.694;23.336;2023-01-24T02:32:42;9.13;;;8.23;;
739;SDS011;354;42.694;23.336;2023-01-24T02:35:21;9.17;;;8.37;;
739;SDS011;354;42.694;23.336;2023-01-24T02:37:51;7.80;;;7.10;;
739;SDS011;354;42.694;23.336;2023-01-24T02:40:17;7.60;;;6.90;;
739;SDS011;354;42.694;23.336;2023-01-24T02:42:43;7.20;;;6.60;;
739;SDS011;354;42.694;23.336;2023-01-24T02:45:18;8.07;;;7.37;;
739;SDS011;354;42.694;23.336;2023-01-24T02:47:48;8.37;;;7.67;;
739;SDS011;354;42.694;23.336;2023-01-24T02:50:16;8.40;;;7.53;;
739;SDS011;354;42.694;23.336;2023-01-24T02:52:43;8.43;;;7.63;;
739;SDS011;354;42.694;23.336;2023-01-24T02:55:28;8.47;;;7.67;;
739;SDS011;354;42.694;23.336;2023-01-24T02:57:54;7.40;;;6.73;;
739;SDS011;354;42.694;23.336;2023-01-24T03:00:33;8.60;;;7.90;;
739;SDS011;354;42.694;23.336;2023-01-24T03:03:06;8.47;;;7.77;;
739;SDS011;354;42.694;23.336;2023-01-24T03:05:33;8.73;;;8.03;;
739;SDS011;354;42.694;23.336;2023-01-24T03:08:18;7.73;;;7.10;;
739;SDS011;354;42.694;23.336;2023-01-24T03:10:43;8.47;;;7.77;;
739;SDS011;354;42.694;23.336;2023-01-24T03:13:11;8.70;;;7.87;;
739;SDS011;354;42.694;23.336;2023-01-24T03:15:55;7.83;;;7.23;;
739;SDS011;354;42.694;23.336;2023-01-24T03:18:42;6.90;;;6.30;;
739;SDS011;354;42.694;23.336;2023-01-24T03:21:26;8.70;;;7.93;;
739;SDS011;354;42.694;23.336;2023-01-24T03:24:10;10.60;;;7.90;;
739;SDS011;354;42.694;23.336;2023-01-24T03:26:54;7.40;;;6.87;;
739;SDS011;354;42.694;23.336;2023-01-24T03:29:38;6.93;;;6.33;;
739;SDS011;354;42.694;23.336;2023-01-24T03:32:22;7.80;;;7.20;;
739;SDS011;354;42.694;23.336;2023-01-24T03:35:06;8.50;;;7.83;;
739;SDS011;354;42.694;23.336;2023-01-24T03:37:31;7.70;;;7.20;;
739;SDS011;354;42.694;23.336;2023-01-24T03:40:15;8.50;;;7.80;;
739;SDS011;354;42.694;23.336;2023-01-24T03:42:41;7.93;;;7.33;;
739;SDS011;354;42.694;23.336;2023-01-24T03:45:14;7.47;;;6.80;;
739;SDS011;354;42.694;23.336;2023-01-24T03:47:52;8.13;;;7.43;;
739;SDS011;354;42.694;23.336;2023-01-24T03:50:40;8.83;;;8.17;;
739;SDS011;354;42.694;23.336;2023-01-24T03:53:27;9.10;;;8.20;;
739;SDS011;354;42.694;23.336;2023-01-24T03:55:55;7.53;;;7.03;;
739;SDS011;354;42.694;23.336;2023-01-24T03:58:22;7.93;;;7.33;;
739;SDS011;354;42.694;23.336;2023-01-24T04:00:49;8.53;;;7.93;;
739;SDS011;354;42.694;23.336;2023-01-24T04:03:14;7.40;;;6.77;;
739;SDS011;354;42.694;23.336;2023-01-24T04:05:39;8.53;;;7.83;;
739;SDS011;354;42.694;23.336;2023-01-24T04:08:05;8.43;;;7.73;;
739;SDS011;354;42.694;23.336;2023-01-24T04:10:31;8.70;;;7.90;;
739;SDS011;354;42.694;23.336;2023-01-24T04:12:56;8.90;;;8.20;;
739;SDS011;354;42.694;23.336;2023-01-24T04:15:24;8.30;;;7.70;;
739;SDS011;354;42.694;23.336;2023-01-24T04:17:53;8.87;;;8.17;;
739;SDS011;354;42.694;23.336;2023-01-24T04:20:21;11.23;;;10.20;;
739;SDS011;354;42.694;23.336;2023-01-24T04:22:46;9.43;;;8.60;;
739;SDS011;354;42.694;23.336;2023-01-24T04:25:11;10.10;;;9.30;;
739;SDS011;354;42.694;23.336;2023-01-24T04:27:37;10.40;;;9.40;;
739;SDS011;354;42.694;23.336;2023-01-24T04:30:03;9.97;;;9.17;;
739;SDS011;354;42.694;23.336;2023-01-24T04:32:30;7.70;;;6.97;;
739;SDS011;354;42.694;23.336;2023-01-24T04:34:56;8.40;;;7.70;;
739;SDS011;354;42.694;23.336;2023-01-24T04:37:21;8.43;;;7.63;;
739;SDS011;354;42.694;23.336;2023-01-24T04:39:46;8.33;;;7.63;;
739;SDS011;354;42.694;23.336;2023-01-24T04:42:12;8.60;;;7.90;;
739;SDS011;354;42.694;23.336;2023-01-24T04:44:37;8.40;;;7.80;;
739;SDS011;354;42.694;23.336;2023-01-24T04:47:02;8.30;;;7.57;;
739;SDS011;354;42.694;23.336;2023-01-24T04:49:28;8.37;;;7.77;;
739;SDS011;354;42.694;23.336;2023-01-24T04:51:53;7.37;;;6.87;;
739;SDS011;354;42.694;23.336;2023-01-24T04:54:19;7.83;;;7.33;;
739;SDS011;354;42.694;23.336;2023-01-24T04:56:44;7.27;;;6.77;;
739;SDS011;354;42.694;23.336;2023-01-24T04:59:10;7.30;;;6.70;;
739;SDS011;354;42.694;23.336;2023-01-24T05:01:37;8.27;;;7.47;;
739;SDS011;354;42.694;23.336;2023-01-24T05:04:03;7.63;;;7.13;;
739;SDS011;354;42.694;23.336;2023-01-24T05:06:30;8.27;;;7.67;;
739;SDS011;354;42.694;23.336;2023-01-24T05:08:56;7.87;;;7.33;;
739;SDS011;354;42.694;23.336;2023-01-24T05:11:22;7.90;;;7.40;;
739;SDS011;354;42.694;23.336;2023-01-24T05:13:48;7.53;;;6.93;;
739;SDS011;354;42.694;23.336;2023-01-24T05:16:14;7.83;;;7.07;;
739;SDS011;354;42.694;23.336;2023-01-24T05:18:39;8.17;;;7.57;;
739;SDS011;354;42.694;23.336;2023-01-24T05:21:08;7.87;;;7.03;;
739;SDS011;354;42.694;23.336;2023-01-24T05:23:36;8.13;;;7.53;;
739;SDS011;354;42.694;23.336;2023-01-24T05:26:01;8.90;;;8.13;;
739;SDS011;354;42.694;23.336;2023-01-24T05:28:27;11.63;;;8.53;;
739;SDS011;354;42.694;23.336;2023-01-24T05:30:56;8.37;;;7.67;;
739;SDS011;354;42.694;23.336;2023-01-24T05:33:22;7.93;;;7.30;;
739;SDS011;354;42.694;23.336;2023-01-24T05:35:48;8.73;;;7.93;;
739;SDS011;354;42.694;23.336;2023-01-24T05:38:13;9.07;;;8.37;;
739;SDS011;354;42.694;23.336;2023-01-24T05:40:38;8.10;;;7.50;;
739;SDS011;354;42.694;23.336;2023-01-24T05:43:05;7.43;;;6.93;;
739;SDS011;354;42.694;23.336;2023-01-24T05:45:31;7.90;;;7.40;;
739;SDS011;354;42.694;23.336;2023-01-24T05:47:56;8.03;;;7.43;;
739;SDS011;354;42.694;23.336;2023-01-24T05:50:22;8.70;;;8.00;;
739;SDS011;354;42.694;23.336;2023-01-24T05:52:47;8.03;;;7.43;;
739;SDS011;354;42.694;23.336;2023-01-24T05:55:12;10.17;;;9.37;;
739;SDS011;354;42.694;23.336;2023-01-24T05:57:38;10.47;;;9.63;;
739;SDS011;354;42.694;23.336;2023-01-24T06:00:04;13.77;;;12.83;;
739;SDS011;354;42.694;23.336;2023-01-24T06:02:29;11.93;;;11.07;;
739;SDS011;354;42.694;23.336;2023-01-24T06:04:55;12.23;;;11.13;;
739;SDS011;354;42.694;23.336;2023-01-24T06:07:20;13.10;;;12.10;;
739;SDS011;354;42.694;23.336;2023-01-24T06:09:45;12.10;;;11.20;;
739;SDS011;354;42.694;23.336;2023-01-24T06:12:11;12.20;;;11.33;;
739;SDS011;354;42.694;23.336;2023-01-24T06:14:36;13.20;;;12.10;;
739;SDS011;354;42.694;23.336;2023-01-24T06:17:02;13.50;;;12.50;;
739;SDS011;354;42.694;23.336;2023-01-24T06:19:27;11.70;;;10.83;;
739;SDS011;354;42.694;23.336;2023-01-24T06:24:25;11.10;;;10.30;;
739;SDS011;354;42.694;23.336;2023-01-24T06:26:52;7.50;;;6.90;;
739;SDS011;354;42.694;23.336;2023-01-24T06:29:19;11.57;;;9.57;;
739;SDS011;354;42.694;23.336;2023-01-24T06:40:10;9.13;;;8.43;;
739;SDS011;354;42.694;23.336;2023-01-24T06:42:37;9.03;;;8.43;;
739;SDS011;354;42.694;23.336;2023-01-24T06:45:03;8.97;;;8.17;;
739;SDS011;354;42.694;23.336;2023-01-24T06:47:30;9.53;;;8.77;;
739;SDS011;354;42.694;23.336;2023-01-24T06:49:55;9.63;;;8.83;;
739;SDS011;354;42.694;23.336;2023-01-24T06:52:20;10.27;;;9.30;;
739;SDS011;354;42.694;23.336;2023-01-24T06:54:46;8.80;;;8.03;;
739;SDS011;354;42.694;23.336;2023-01-24T06:57:11;8.43;;;7.77;;
739;SDS011;354;42.694;23.336;2023-01-24T06:59:37;10.07;;;9.17;;
739;SDS011;354;42.694;23.336;2023-01-24T07:02:02;9.97;;;9.20;;
739;SDS011;354;42.694;23.336;2023-01-24T07:04:28;9.03;;;8.40;;
739;SDS011;354;42.694;23.336;2023-01-24T07:06:53;12.93;;;11.83;;
739;SDS011;354;42.694;23.336;2023-01-24T07:09:19;10.37;;;9.60;;
739;SDS011;354;42.694;23.336;2023-01-24T07:11:48;9.53;;;8.83;;
739;SDS011;354;42.694;23.336;2023-01-24T07:14:17;11.63;;;10.47;;
739;SDS011;354;42.694;23.336;2023-01-24T07:16:43;11.67;;;10.77;;
739;SDS011;354;42.694;23.336;2023-01-24T07:19:13;12.37;;;11.37;;
739;SDS011;354;42.694;23.336;2023-01-24T07:21:41;11.33;;;10.43;;
739;SDS011;354;42.694;23.336;2023-01-24T07:24:13;12.60;;;11.43;;
739;SDS011;354;42.694;23.336;2023-01-24T07:26:41;10.60;;;9.70;;
739;SDS011;354;42.694;23.336;2023-01-24T07:29:07;10.87;;;10.07;;
739;SDS011;354;42.694;23.336;2023-01-24T07:31:33;10.43;;;9.73;;
739;SDS011;354;42.694;23.336;2023-01-24T07:33:58;10.53;;;9.80;;
739;SDS011;354;42.694;23.336;2023-01-24T07:36:24;10.63;;;9.90;;
739;SDS011;354;42.694;23.336;2023-01-24T07:38:52;9.73;;;9.13;;
739;SDS011;354;42.694;23.336;2023-01-24T07:41:21;9.63;;;8.93;;
739;SDS011;354;42.694;23.336;2023-01-24T07:43:46;9.47;;;8.67;;
739;SDS011;354;42.694;23.336;2023-01-24T07:46:12;10.67;;;9.60;;
739;SDS011;354;42.694;23.336;2023-01-24T07:48:37;9.50;;;8.70;;
739;SDS011;354;42.694;23.336;2023-01-24T07:51:03;9.13;;;8.33;;
739;SDS011;354;42.694;23.336;2023-01-24T07:53:28;11.43;;;10.43;;
739;SDS011;354;42.694;23.336;2023-01-24T07:55:54;10.93;;;10.03;;
739;SDS011;354;42.694;23.336;2023-01-24T07:58:19;10.00;;;9.20;;
739;SDS011;354;42.694;23.336;2023-01-24T08:00:45;14.23;;;12.90;;
739;SDS011;354;42.694;23.336;2023-01-24T08:03:10;10.67;;;9.77;;
739;SDS011;354;42.694;23.336;2023-01-24T08:05:36;11.63;;;10.47;;
739;SDS011;354;42.694;23.336;2023-01-24T08:08:02;11.47;;;10.43;;
739;SDS011;354;42.694;23.336;2023-01-24T08:10:28;16.83;;;15.10;;
739;SDS011;354;42.694;23.336;2023-01-24T08:12:54;11.30;;;10.47;;
739;SDS011;354;42.694;23.336;2023-01-24T08:15:20;11.37;;;10.47;;
739;SDS011;354;42.694;23.336;2023-01-24T08:17:45;10.83;;;9.93;;
739;SDS011;354;42.694;23.336;2023-01-24T08:20:11;11.10;;;10.20;;
739;SDS011;354;42.694;23.336;2023-01-24T08:22:40;14.03;;;12.73;;
739;SDS011;354;42.694;23.336;2023-01-24T08:25:06;11.10;;;10.13;;
739;SDS011;354;42.694;23.336;2023-01-24T08:27:33;10.47;;;9.60;;
739;SDS011;354;42.694;23.336;2023-01-24T08:29:58;10.47;;;9.47;;
739;SDS011;354;42.694;23.336;2023-01-24T08:32:23;10.73;;;9.77;;
739;SDS011;354;42.694;23.336;2023-01-24T08:34:49;11.87;;;10.73;;
739;SDS011;354;42.694;23.336;2023-01-24T08:37:15;10.40;;;9.60;;
739;SDS011;354;42.694;23.336;2023-01-24T08:39:41;10.37;;;9.50;;
739;SDS011;354;42.694;23.336;2023-01-24T08:42:06;11.97;;;10.87;;
739;SDS011;354;42.694;23.336;2023-01-24T08:44:32;11.63;;;10.43;;
739;SDS011;354;42.694;23.336;2023-01-24T08:46:58;9.80;;;9.00;;
739;SDS011;354;42.694;23.336;2023-01-24T08:49:23;11.67;;;10.87;;
739;SDS011;354;42.694;23.336;2023-01-24T08:51:48;9.60;;;8.80;;
739;SDS011;354;42.694;23.336;2023-01-24T08:54:15;11.37;;;10.47;;
739;SDS011;354;42.694;23.336;2023-01-24T08:56:41;10.03;;;9.23;;
739;SDS011;354;42.694;23.336;2023-01-24T08:59:06;10.57;;;9.67;;
739;SDS011;354;42.694;23.336;2023-01-24T09:01:31;9.83;;;9.03;;
739;SDS011;354;42.694;23.336;2023-01-24T09:03:58;9.13;;;8.40;;
739;SDS011;354;42.694;23.336;2023-01-24T09:06:24;9.80;;;9.03;;
739;SDS011;354;42.694;23.336;2023-01-24T09:08:53;9.27;;;8.57;;
739;SDS011;354;42.694;23.336;2023-01-24T09:11:20;10.60;;;9.60;;
739;SDS011;354;42.694;23.336;2023-01-24T09:13:46;9.57;;;8.77;;
739;SDS011;354;42.694;23.336;2023-01-24T09:16:11;7.60;;;7.10;;
739;SDS011;354;42.694;23.336;2023-01-24T09:18:37;9.43;;;8.63;;
739;SDS011;354;42.694;23.336;2023-01-24T09:21:02;11.13;;;10.20;;
739;SDS011;354;42.694;23.336;2023-01-24T09:23:29;9.07;;;8.23;;
739;SDS011;354;42.694;23.336;2023-01-24T09:25:54;7.27;;;6.67;;
739;SDS011;354;42.694;23.336;2023-01-24T09:28:20;9.47;;;8.60;;
739;SDS011;354;42.694;23.336;2023-01-24T09:30:49;8.70;;;8.00;;
739;SDS011;354;42.694;23.336;2023-01-24T09:33:16;8.33;;;7.60;;
739;SDS011;354;42.694;23.336;2023-01-24T09:35:50;8.93;;;8.13;;
739;SDS011;354;42.694;23.336;2023-01-24T09:38:16;7.50;;;7.00;;
739;SDS011;354;42.694;23.336;2023-01-24T09:40:43;8.13;;;7.43;;
739;SDS011;354;42.694;23.336;2023-01-24T09:43:15;8.40;;;7.70;;
739;SDS011;354;42.694;23.336;2023-01-24T09:46:05;10.47;;;9.53;;
739;SDS011;354;42.694;23.336;2023-01-24T09:48:34;7.23;;;6.73;;
739;SDS011;354;42.694;23.336;2023-01-24T09:51:01;7.47;;;6.97;;
739;SDS011;354;42.694;23.336;2023-01-24T09:53:37;7.97;;;7.27;;
739;SDS011;354;42.694;23.336;2023-01-24T09:56:07;8.40;;;7.73;;
739;SDS011;354;42.694;23.336;2023-01-24T09:58:47;8.90;;;8.23;;
739;SDS011;354;42.694;23.336;2023-01-24T10:01:37;9.23;;;8.50;;
739;SDS011;354;42.694;23.336;2023-01-24T10:04:08;7.07;;;6.57;;
739;SDS011;354;42.694;23.336;2023-01-24T10:06:38;7.00;;;6.60;;
739;SDS011;354;42.694;23.336;2023-01-24T10:09:10;8.47;;;7.77;;
739;SDS011;354;42.694;23.336;2023-01-24T10:12:01;6.50;;;6.10;;
739;SDS011;354;42.694;23.336;2023-01-24T10:17:56;7.43;;;6.93;;
739;SDS011;354;42.694;23.336;2023-01-24T10:22:57;6.50;;;6.10;;
739;SDS011;354;42.694;23.336;2023-01-24T10:25:25;8.73;;;8.03;;
739;SDS011;354;42.694;23.336;2023-01-24T10:27:55;6.47;;;6.07;;
739;SDS011;354;42.694;23.336;2023-01-24T10:30:41;7.03;;;6.53;;
739;SDS011;354;42.694;23.336;2023-01-24T10:33:15;5.63;;;5.33;;
739;SDS011;354;42.694;23.336;2023-01-24T10:36:04;7.20;;;6.70;;
739;SDS011;354;42.694;23.336;2023-01-24T10:38:35;6.43;;;6.03;;
739;SDS011;354;42.694;23.336;2023-01-24T10:41:15;9.03;;;8.33;;
739;SDS011;354;42.694;23.336;2023-01-24T10:43:44;5.83;;;5.43;;
739;SDS011;354;42.694;23.336;2023-01-24T10:48:58;7.73;;;7.23;;
739;SDS011;354;42.694;23.336;2023-01-24T10:51:26;9.47;;;8.67;;
739;SDS011;354;42.694;23.336;2023-01-24T10:53:55;11.73;;;10.63;;
739;SDS011;354;42.694;23.336;2023-01-24T10:56:27;6.60;;;6.20;;
739;SDS011;354;42.694;23.336;2023-01-24T11:01:44;7.17;;;6.67;;
739;SDS011;354;42.694;23.336;2023-01-24T11:06:47;6.93;;;6.23;;
739;SDS011;354;42.694;23.336;2023-01-24T11:09:14;5.83;;;5.30;;
739;SDS011;354;42.694;23.336;2023-01-24T11:11:43;6.10;;;5.80;;
739;SDS011;354;42.694;23.336;2023-01-24T11:14:15;6.90;;;6.37;;
739;SDS011;354;42.694;23.336;2023-01-24T11:16:43;6.07;;;5.67;;
739;SDS011;354;42.694;23.336;2023-01-24T11:19:44;6.67;;;6.07;;
739;SDS011;354;42.694;23.336;2023-01-24T11:22:20;6.37;;;5.87;;
739;SDS011;354;42.694;23.336;2023-01-24T11:24:48;8.13;;;7.43;;
739;SDS011;354;42.694;23.336;2023-01-24T11:27:14;7.00;;;6.57;;
739;SDS011;354;42.694;23.336;2023-01-24T11:29:41;6.27;;;5.77;;
739;SDS011;354;42.694;23.336;2023-01-24T11:35:10;7.53;;;7.03;;
739;SDS011;354;42.694;23.336;2023-01-24T11:54:09;7.43;;;6.87;;
739;SDS011;354;42.694;23.336;2023-01-24T12:05:15;6.33;;;6.03;;
739;SDS011;354;42.694;23.336;2023-01-24T12:10:52;7.00;;;6.60;;
739;SDS011;354;42.694;23.336;2023-01-24T12:16:03;6.10;;;5.70;;
739;SDS011;354;42.694;23.336;2023-01-24T12:18:42;6.23;;;5.83;;
739;SDS011;354;42.694;23.336;2023-01-24T12:21:37;6.37;;;5.97;;
739;SDS011;354;42.694;23.336;2023-01-24T12:24:05;7.50;;;7.00;;
739;SDS011;354;42.694;23.336;2023-01-24T12:26:44;6.00;;;5.60;;
739;SDS011;354;42.694;23.336;2023-01-24T12:29:15;6.90;;;6.30;;
739;SDS011;354;42.694;23.336;2023-01-24T12:31:51;7.63;;;7.10;;
739;SDS011;354;42.694;23.336;2023-01-24T12:37:10;6.60;;;6.13;;
739;SDS011;354;42.694;23.336;2023-01-24T12:40:07;6.70;;;6.23;;
739;SDS011;354;42.694;23.336;2023-01-24T12:45:22;6.43;;;6.00;;
739;SDS011;354;42.694;23.336;2023-01-24T12:48:14;6.20;;;5.73;;
739;SDS011;354;42.694;23.336;2023-01-24T12:53:37;7.80;;;7.30;;
739;SDS011;354;42.694;23.336;2023-01-24T12:59:12;7.70;;;7.00;;
739;SDS011;354;42.694;23.336;2023-01-24T13:04:34;6.80;;;6.20;;
739;SDS011;354;42.694;23.336;2023-01-24T13:12:35;6.70;;;6.20;;
739;SDS011;354;42.694;23.336;2023-01-24T13:15:02;7.20;;;6.70;;
739;SDS011;354;42.694;23.336;2023-01-24T13:26:48;6.00;;;5.60;;
739;SDS011;354;42.694;23.336;2023-01-24T13:32:33;7.10;;;6.60;;
739;SDS011;354;42.694;23.336;2023-01-24T13:35:10;6.07;;;5.57;;
739;SDS011;354;42.694;23.336;2023-01-24T13:37:48;7.20;;;6.70;;
739;SDS011;354;42.694;23.336;2023-01-24T13:42:47;6.33;;;5.90;;
739;SDS011;354;42.694;23.336;2023-01-24T13:47:57;5.73;;;5.33;;
739;SDS011;354;42.694;23.336;2023-01-24T13:50:25;7.70;;;7.10;;
739;SDS011;354;42.694;23.336;2023-01-24T13:52:55;6.27;;;5.87;;
739;SDS011;354;42.694;23.336;2023-01-24T14:00:22;5.23;;;4.93;;
739;SDS011;354;42.694;23.336;2023-01-24T14:07:53;6.50;;;6.10;;
739;SDS011;354;42.694;23.336;2023-01-24T14:10:39;6.63;;;6.23;;
739;SDS011;354;42.694;23.336;2023-01-24T14:18:49;7.67;;;6.97;;
739;SDS011;354;42.694;23.336;2023-01-24T14:21:20;7.33;;;6.73;;
739;SDS011;354;42.694;23.336;2023-01-24T14:23:48;7.33;;;6.63;;
739;SDS011;354;42.694;23.336;2023-01-24T14:26:17;8.03;;;7.53;;
739;SDS011;354;42.694;23.336;2023-01-24T14:28:51;7.17;;;6.77;;
739;SDS011;354;42.694;23.336;2023-01-24T14:34:00;8.47;;;7.80;;
739;SDS011;354;42.694;23.336;2023-01-24T14:36:35;8.70;;;8.00;;
739;SDS011;354;42.694;23.336;2023-01-24T14:39:36;9.33;;;8.57;;
739;SDS011;354;42.694;23.336;2023-01-24T14:42:02;8.80;;;8.10;;
739;SDS011;354;42.694;23.336;2023-01-24T14:44:31;8.70;;;8.00;;
739;SDS011;354;42.694;23.336;2023-01-24T14:47:02;8.87;;;8.17;;
739;SDS011;354;42.694;23.336;2023-01-24T14:49:30;7.60;;;7.10;;
739;SDS011;354;42.694;23.336;2023-01-24T14:51:58;9.40;;;8.50;;
739;SDS011;354;42.694;23.336;2023-01-24T14:54:25;9.33;;;8.63;;
739;SDS011;354;42.694;23.336;2023-01-24T14:56:51;8.03;;;7.27;;
739;SDS011;354;42.694;23.336;2023-01-24T14:59:17;9.13;;;8.30;;
739;SDS011;354;42.694;23.336;2023-01-24T15:01:44;8.30;;;7.60;;
739;SDS011;354;42.694;23.336;2023-01-24T15:04:20;9.50;;;8.80;;
739;SDS011;354;42.694;23.336;2023-01-24T15:09:49;10.37;;;9.47;;
739;SDS011;354;42.694;23.336;2023-01-24T15:14:54;9.83;;;8.80;;
739;SDS011;354;42.694;23.336;2023-01-24T15:17:22;8.07;;;7.50;;
739;SDS011;354;42.694;23.336;2023-01-24T15:19:50;8.93;;;8.13;;
739;SDS011;354;42.694;23.336;2023-01-24T15:22:21;7.90;;;7.20;;
739;SDS011;354;42.694;23.336;2023-01-24T15:24:54;7.90;;;7.30;;
739;SDS011;354;42.694;23.336;2023-01-24T15:27:32;9.17;;;8.40;;
739;SDS011;354;42.694;23.336;2023-01-24T15:30:16;8.90;;;8.13;;
739;SDS011;354;42.694;23.336;2023-01-24T15:35:21;8.47;;;7.77;;
739;SDS011;354;42.694;23.336;2023-01-24T15:40:36;8.87;;;8.07;;
739;SDS011;354;42.694;23.336;2023-01-24T15:49:19;13.00;;;9.27;;
739;SDS011;354;42.694;23.336;2023-01-24T15:54:34;10.03;;;8.97;;
739;SDS011;354;42.694;23.336;2023-01-24T15:57:03;9.03;;;8.07;;
739;SDS011;354;42.694;23.336;2023-01-24T15:59:30;8.87;;;8.17;;
739;SDS011;354;42.694;23.336;2023-01-24T16:01:57;7.43;;;6.80;;
739;SDS011;354;42.694;23.336;2023-01-24T16:04:24;8.87;;;8.07;;
739;SDS011;354;42.694;23.336;2023-01-24T16:06:50;10.07;;;8.93;;
739;SDS011;354;42.694;23.336;2023-01-24T16:09:15;8.33;;;7.63;;
739;SDS011;354;42.694;23.336;2023-01-24T16:11:44;9.97;;;8.93;;
739;SDS011;354;42.694;23.336;2023-01-24T16:14:13;8.50;;;7.73;;
739;SDS011;354;42.694;23.336;2023-01-24T16:16:45;27.23;;;17.43;;
739;SDS011;354;42.694;23.336;2023-01-24T16:19:15;9.20;;;8.50;;
739;SDS011;354;42.694;23.336;2023-01-24T16:21:43;11.37;;;10.27;;
739;SDS011;354;42.694;23.336;2023-01-24T16:24:09;10.13;;;9.23;;
739;SDS011;354;42.694;23.336;2023-01-24T16:26:34;14.27;;;12.40;;
739;SDS011;354;42.694;23.336;2023-01-24T16:29:00;11.40;;;10.30;;
739;SDS011;354;42.694;23.336;2023-01-24T16:31:25;10.03;;;8.70;;
739;SDS011;354;42.694;23.336;2023-01-24T16:33:50;11.43;;;10.30;;
739;SDS011;354;42.694;23.336;2023-01-24T16:36:16;12.17;;;10.97;;
739;SDS011;354;42.694;23.336;2023-01-24T16:38:41;11.13;;;9.83;;
739;SDS011;354;42.694;23.336;2023-01-24T16:41:09;14.03;;;12.03;;
739;SDS011;354;42.694;23.336;2023-01-24T16:43:35;14.37;;;12.87;;
739;SDS011;354;42.694;23.336;2023-01-24T16:46:01;14.63;;;11.53;;
739;SDS011;354;42.694;23.336;2023-01-24T16:48:26;12.97;;;11.67;;
739;SDS011;354;42.694;23.336;2023-01-24T16:50:54;12.13;;;10.83;;
739;SDS011;354;42.694;23.336;2023-01-24T16:53:19;13.00;;;11.80;;
739;SDS011;354;42.694;23.336;2023-01-24T16:55:50;13.00;;;11.53;;
739;SDS011;354;42.694;23.336;2023-01-24T16:58:20;11.17;;;9.77;;
739;SDS011;354;42.694;23.336;2023-01-24T17:00:45;11.10;;;9.77;;
739;SDS011;354;42.694;23.336;2023-01-24T17:03:11;10.13;;;8.97;;
739;SDS011;354;42.694;23.336;2023-01-24T17:05:38;9.43;;;8.17;;
739;SDS011;354;42.694;23.336;2023-01-24T17:08:05;11.50;;;10.40;;
739;SDS011;354;42.694;23.336;2023-01-24T17:10:30;11.70;;;10.50;;
739;SDS011;354;42.694;23.336;2023-01-24T17:12:55;12.53;;;10.03;;
739;SDS011;354;42.694;23.336;2023-01-24T17:15:21;9.73;;;8.83;;
739;SDS011;354;42.694;23.336;2023-01-24T17:17:46;10.50;;;9.53;;
739;SDS011;354;42.694;23.336;2023-01-24T17:20:12;11.53;;;8.93;;
739;SDS011;354;42.694;23.336;2023-01-24T17:22:37;11.00;;;9.67;;
739;SDS011;354;42.694;23.336;2023-01-24T17:25:04;9.83;;;8.83;;
739;SDS011;354;42.694;23.336;2023-01-24T17:27:30;9.70;;;8.80;;
739;SDS011;354;42.694;23.336;2023-01-24T17:29:55;11.90;;;10.67;;
739;SDS011;354;42.694;23.336;2023-01-24T17:32:21;11.70;;;10.53;;
739;SDS011;354;42.694;23.336;2023-01-24T17:34:47;12.80;;;11.23;;
739;SDS011;354;42.694;23.336;2023-01-24T17:37:12;13.23;;;12.03;;
739;SDS011;354;42.694;23.336;2023-01-24T17:39:38;41.87;;;28.43;;
739;SDS011;354;42.694;23.336;2023-01-24T17:42:03;12.03;;;10.93;;
739;SDS011;354;42.694;23.336;2023-01-24T17:44:29;12.40;;;11.20;;
739;SDS011;354;42.694;23.336;2023-01-24T17:46:54;14.27;;;12.90;;
739;SDS011;354;42.694;23.336;2023-01-24T17:49:21;13.20;;;10.90;;
739;SDS011;354;42.694;23.336;2023-01-24T17:51:47;11.57;;;10.43;;
739;SDS011;354;42.694;23.336;2023-01-24T17:54:15;11.53;;;10.23;;
739;SDS011;354;42.694;23.336;2023-01-24T17:56:41;12.53;;;11.23;;
739;SDS011;354;42.694;23.336;2023-01-24T17:59:08;15.00;;;11.47;;
739;SDS011;354;42.694;23.336;2023-01-24T18:01:33;14.00;;;12.57;;